Time;durP1;ratioP1;P1;durP2;ratioP2;P2;SDS_P1;SDS_P2;PMS_P1;PMS_P2;Temp;Humidity;BMP_temperature;BMP_pressure;BME280_temperature;BME280_humidity;BME280_pressure;Samples;Min_cycle;Max_cycle;Signal;HPM_P1;HPM_P2
2022/11/13 00:04:03;;;;;;;51.65;33.53;;;;;;;7.56;100.00;102699.44;10539983;28;20036;-72
2022/11/13 00:09:03;;;;;;;43.63;33.95;;;;;;;7.51;100.00;102700.81;10540397;28;20040;-73
2022/11/13 00:14:04;;;;;;;46.63;34.25;;;;;;;7.48;100.00;102691.16;10541963;28;20051;-73
2022/11/13 00:19:04;;;;;;;47.63;33.75;;;;;;;7.44;100.00;102689.72;10530288;28;20507;-73
2022/11/13 00:24:05;;;;;;;48.35;34.33;;;;;;;7.45;100.00;102686.88;10554061;28;20035;-73
2022/11/13 00:29:05;;;;;;;47.67;34.35;;;;;;;7.41;100.00;102679.22;10553915;28;20068;-72
2022/11/13 00:34:05;;;;;;;50.97;32.67;;;;;;;7.33;100.00;102676.31;10554589;28;20035;-72
2022/11/13 00:39:06;;;;;;;39.38;31.38;;;;;;;7.31;100.00;102657.59;10553406;28;20064;-74
2022/11/13 00:44:06;;;;;;;44.55;33.35;;;;;;;7.32;100.00;102653.91;10553783;28;20032;-74
2022/11/13 00:49:07;;;;;;;39.45;32.80;;;;;;;7.28;100.00;102646.22;10554363;28;20036;-73
2022/11/13 00:54:07;;;;;;;36.20;32.20;;;;;;;7.16;100.00;102642.75;10552042;28;20529;-73
2022/11/13 00:59:07;;;;;;;42.80;31.35;;;;;;;7.08;100.00;102642.53;10553728;28;20210;-72
2022/11/13 01:04:08;;;;;;;45.55;32.05;;;;;;;7.01;100.00;102638.66;10552263;28;20024;-73
2022/11/13 01:09:08;;;;;;;51.08;34.38;;;;;;;6.98;100.00;102634.41;10552899;28;20126;-73
2022/11/13 01:14:09;;;;;;;40.20;32.60;;;;;;;6.96;100.00;102634.53;10553098;28;20040;-73
2022/11/13 01:19:09;;;;;;;43.63;33.83;;;;;;;6.96;100.00;102642.63;10552159;28;20131;-73
2022/11/13 01:24:09;;;;;;;40.75;32.67;;;;;;;7.00;100.00;102632.44;10570139;28;20039;-73
2022/11/13 01:29:11;;;;;;;41.65;31.65;;;;;;;7.10;100.00;102621.72;10550016;28;20136;-73
2022/11/13 01:34:11;;;;;;;39.35;32.63;;;;;;;7.04;100.00;102633.88;10546794;28;20047;-73
2022/11/13 01:39:12;;;;;;;42.72;31.08;;;;;;;6.93;100.00;102626.72;10546763;28;20055;-73
2022/11/13 01:44:14;;;;;;;44.38;28.73;;;;;;;6.93;100.00;102629.41;10547374;28;20072;-73
2022/11/13 01:49:17;;;;;;;40.20;29.30;;;;;;;6.92;100.00;102625.03;10544429;28;20028;-74
2022/11/13 01:54:19;;;;;;;33.92;27.20;;;;;;;6.82;100.00;102607.06;10565147;28;20379;-73
2022/11/13 01:59:25;;;;;;;32.85;26.70;;;;;;;6.79;100.00;102616.25;10556310;28;20040;-73
2022/11/13 02:04:25;;;;;;;30.27;27.10;;;;;;;6.78;100.00;102617.25;10567680;28;20399;-73
2022/11/13 02:09:28;;;;;;;42.88;30.00;;;;;;;6.73;100.00;102606.88;10549692;28;20047;-72
2022/11/13 02:14:28;;;;;;;38.17;28.13;;;;;;;6.66;100.00;102596.75;10549396;28;20024;-73
2022/11/13 02:19:32;;;;;;;30.10;24.13;;;;;;;6.58;100.00;102597.41;10544836;28;20036;-73
2022/11/13 02:24:37;;;;;;;37.25;27.70;;;;;;;6.50;100.00;102592.66;10543402;28;20107;-74
2022/11/13 02:29:37;;;;;;;37.60;28.05;;;;;;;6.63;100.00;102592.47;10560096;28;20483;-73
2022/11/13 02:34:38;;;;;;;32.15;26.13;;;;;;;6.71;100.00;102584.63;10543250;28;20032;-73
2022/11/13 02:39:38;;;;;;;36.78;26.33;;;;;;;6.67;100.00;102577.78;10542905;28;20039;-74
2022/11/13 02:44:39;;;;;;;29.48;25.10;;;;;;;6.78;100.00;102578.72;10543426;28;20506;-73
2022/11/13 02:49:39;;;;;;;40.65;25.27;;;;;;;6.70;100.00;102584.72;10545124;28;20091;-73
2022/11/13 02:54:39;;;;;;;28.70;24.83;;;;;;;6.68;100.00;102568.72;10542550;28;20032;-73
2022/11/13 02:59:40;;;;;;;29.10;23.85;;;;;;;6.64;100.00;102556.53;10557931;28;20035;-73
2022/11/13 03:04:40;;;;;;;31.80;25.30;;;;;;;6.62;100.00;102557.63;10542717;28;20096;-73
2022/11/13 03:09:41;;;;;;;30.85;22.65;;;;;;;6.61;100.00;102545.16;10542448;28;20043;-73
2022/11/13 03:14:41;;;;;;;32.80;23.10;;;;;;;6.63;100.00;102546.72;10558056;28;20529;-75
2022/11/13 03:19:41;;;;;;;32.42;22.75;;;;;;;6.58;100.00;102540.03;10540729;28;20535;-73
2022/11/13 03:24:42;;;;;;;25.98;23.15;;;;;;;6.52;100.00;102539.56;10541842;28;20036;-73
2022/11/13 03:29:42;;;;;;;25.08;20.20;;;;;;;6.44;100.00;102541.19;10541372;28;20357;-73
2022/11/13 03:34:44;;;;;;;29.35;21.60;;;;;;;6.40;100.00;102537.06;10540603;28;20412;-73
2022/11/13 03:39:44;;;;;;;24.65;20.15;;;;;;;6.27;100.00;102535.41;10541765;28;20044;-73
2022/11/13 03:44:44;;;;;;;20.95;18.92;;;;;;;6.20;100.00;102528.84;10541322;28;20463;-73
2022/11/13 03:49:45;;;;;;;23.95;19.75;;;;;;;6.14;100.00;102542.81;10539855;28;20040;-73
2022/11/13 03:54:45;;;;;;;23.25;18.15;;;;;;;6.10;100.00;102527.91;10538908;28;20476;-73
2022/11/13 03:59:46;;;;;;;25.05;19.23;;;;;;;6.05;100.00;102533.66;10540832;28;20062;-73
2022/11/13 04:04:46;;;;;;;20.33;17.80;;;;;;;6.05;100.00;102533.66;10539339;28;20032;-74
2022/11/13 04:09:46;;;;;;;19.55;17.30;;;;;;;6.10;100.00;102524.38;10556800;28;20549;-74
2022/11/13 04:14:47;;;;;;;24.00;19.38;;;;;;;6.15;100.00;102532.91;10556217;28;20029;-73
2022/11/13 04:19:47;;;;;;;24.77;18.48;;;;;;;6.24;100.00;102518.69;10539111;28;20501;-72
2022/11/13 04:24:48;;;;;;;20.80;17.67;;;;;;;6.28;100.00;102520.97;10542687;28;20036;-73
2022/11/13 04:29:48;;;;;;;24.17;18.52;;;;;;;6.37;100.00;102526.56;10544954;28;20097;-72
2022/11/13 04:34:49;;;;;;;24.33;16.73;;;;;;;6.36;100.00;102509.56;10540869;28;20040;-72
2022/11/13 04:39:49;;;;;;;16.77;15.10;;;;;;;6.33;100.00;102499.06;10540925;28;20043;-73
2022/11/13 04:44:49;;;;;;;25.67;19.25;;;;;;;6.35;100.00;102501.59;10555490;28;20487;-73
2022/11/13 04:49:50;;;;;;;25.60;16.70;;;;;;;6.32;100.00;102491.09;10539006;28;20051;-73
2022/11/13 04:54:50;;;;;;;17.02;14.90;;;;;;;6.26;100.00;102487.13;10540746;28;20028;-74
2022/11/13 04:59:51;;;;;;;23.35;16.90;;;;;;;6.26;100.00;102508.66;10540149;28;20063;-73
2022/11/13 05:04:51;;;;;;;18.67;15.57;;;;;;;6.26;100.00;102500.56;10541297;28;20494;-74
2022/11/13 05:09:52;;;;;;;20.08;15.23;;;;;;;6.26;100.00;102504.13;10546688;28;20032;-73
2022/11/13 05:14:52;;;;;;;19.10;14.48;;;;;;;6.22;100.00;102478.47;10546080;28;20224;-73
2022/11/13 05:19:53;;;;;;;18.88;14.48;;;;;;;6.22;100.00;102481.16;10547146;28;20032;-73
2022/11/13 05:24:53;;;;;;;20.45;17.20;;;;;;;6.18;100.00;102477.00;10545382;28;20032;-72
2022/11/13 05:29:53;;;;;;;16.42;14.43;;;;;;;6.10;100.00;102473.28;10546427;28;20051;-73
2022/11/13 05:34:54;;;;;;;16.80;14.63;;;;;;;6.09;100.00;102480.47;10561492;28;20484;-73
2022/11/13 05:39:54;;;;;;;23.10;15.48;;;;;;;6.02;100.00;102473.91;10546161;28;20072;-72
2022/11/13 05:44:54;;;;;;;17.33;15.15;;;;;;;5.99;100.00;102460.72;10544804;28;20032;-73
2022/11/13 05:49:55;;;;;;;20.40;14.73;;;;;;;5.82;100.00;102457.56;10527626;28;20075;-75
2022/11/13 05:54:55;;;;;;;15.38;13.75;;;;;;;5.82;100.00;102454.03;10561609;28;20085;-74
2022/11/13 05:59:56;;;;;;;25.63;13.75;;;;;;;5.70;100.00;102447.84;10545293;28;20046;-72
2022/11/13 06:04:56;;;;;;;22.65;14.07;;;;;;;5.56;100.00;102451.69;10544668;28;20380;-73
2022/11/13 06:09:56;;;;;;;20.25;13.57;;;;;;;5.46;100.00;102449.88;10545475;28;20097;-72
2022/11/13 06:14:57;;;;;;;22.42;14.35;;;;;;;5.39;100.00;102437.91;10544692;28;20123;-73
2022/11/13 06:19:57;;;;;;;23.23;14.18;;;;;;;5.31;100.00;102439.41;10544829;28;20040;-73
2022/11/13 06:24:58;;;;;;;16.35;14.63;;;;;;;5.21;100.00;102421.50;10544410;28;20035;-73
2022/11/13 06:29:58;;;;;;;18.27;13.98;;;;;;;5.33;100.00;102426.72;10560405;28;20067;-73
2022/11/13 06:34:58;;;;;;;16.08;14.27;;;;;;;5.52;100.00;102426.06;10543872;28;20031;-72
2022/11/13 06:39:59;;;;;;;19.13;14.88;;;;;;;5.73;100.00;102423.41;10543565;28;20035;-73
2022/11/13 06:44:59;;;;;;;16.38;13.82;;;;;;;6.04;100.00;102435.16;10564754;28;20097;-73
2022/11/13 06:49:59;;;;;;;23.40;14.60;;;;;;;6.13;100.00;102424.59;10552307;28;20036;-73
2022/11/13 06:55:00;;;;;;;21.52;15.68;;;;;;;6.24;100.00;102422.69;10551155;28;20428;-73
2022/11/13 07:00:00;;;;;;;16.15;14.45;;;;;;;6.27;100.00;102417.03;10541622;28;20077;-73
2022/11/13 07:05:01;;;;;;;17.35;13.75;;;;;;;6.32;100.00;102421.16;10524435;28;20028;-73
2022/11/13 07:10:01;;;;;;;17.38;14.48;;;;;;;6.41;100.00;102425.75;10542589;28;20036;-74
2022/11/13 07:15:01;;;;;;;19.08;14.40;;;;;;;6.64;100.00;102418.38;10542076;28;20028;-73
2022/11/13 07:20:02;;;;;;;19.70;15.02;;;;;;;6.91;100.00;102405.16;10542363;28;20384;-73
2022/11/13 07:25:03;;;;;;;17.73;14.18;;;;;;;6.99;100.00;102408.03;10557014;28;20040;-74
2022/11/13 07:30:04;;;;;;;19.17;13.43;;;;;;;7.11;100.00;102392.59;10538839;28;20093;-73
2022/11/13 07:35:04;;;;;;;20.95;13.88;;;;;;;7.41;100.00;102404.28;10540255;28;20088;-73
2022/11/13 07:40:05;;;;;;;19.27;15.63;;;;;;;8.33;100.00;102393.03;10557438;28;20085;-73
2022/11/13 07:45:06;;;;;;;18.02;16.13;;;;;;;9.09;100.00;102387.44;10540596;28;20470;-73
2022/11/13 07:50:07;;;;;;;19.10;15.07;;;;;;;9.55;100.00;102389.13;10540265;28;20024;-74
2022/11/13 07:55:07;;;;;;;16.35;14.07;;;;;;;9.71;100.00;102388.44;10540143;28;20032;-73
2022/11/13 08:00:08;;;;;;;15.77;12.00;;;;;;;9.98;100.00;102387.47;10539459;28;20032;-74
2022/11/13 08:05:08;;;;;;;14.15;12.63;;;;;;;10.22;100.00;102386.81;10540581;28;20056;-73
2022/11/13 08:10:09;;;;;;;12.73;10.90;;;;;;;10.43;100.00;102391.91;10541788;28;20474;-73
2022/11/13 08:15:10;;;;;;;13.20;9.63;;;;;;;10.78;100.00;102390.03;10539526;28;20028;-73
2022/11/13 08:20:10;;;;;;;13.45;10.00;;;;;;;10.97;100.00;102394.34;10539874;28;20043;-74
2022/11/13 08:25:11;;;;;;;14.25;8.73;;;;;;;11.17;100.00;102395.78;10539972;28;20055;-73
2022/11/13 08:30:12;;;;;;;11.50;8.45;;;;;;;11.39;100.00;102388.91;10538398;28;20114;-73
2022/11/13 08:35:12;;;;;;;11.02;9.70;;;;;;;11.55;98.67;102379.06;10556315;28;20036;-73
2022/11/13 08:40:13;;;;;;;11.73;8.10;;;;;;;11.89;97.87;102394.41;10544067;28;20123;-72
2022/11/13 08:45:13;;;;;;;11.23;8.07;;;;;;;12.00;93.82;102384.06;10566452;28;20081;-72
2022/11/13 08:50:14;;;;;;;12.20;8.52;;;;;;;11.82;91.93;102373.31;10550589;28;20115;-74
2022/11/13 08:55:14;;;;;;;11.30;8.35;;;;;;;12.05;95.13;102359.94;10564844;28;20114;-72
2022/11/13 09:00:15;;;;;;;10.57;7.93;;;;;;;12.20;92.09;102354.66;10546619;28;20028;-73
2022/11/13 09:05:15;;;;;;;8.10;6.88;;;;;;;12.23;86.04;102353.47;10571542;28;20040;-72
2022/11/13 09:10:16;;;;;;;10.23;8.40;;;;;;;12.08;86.08;102337.03;10539870;28;20036;-74
2022/11/13 09:15:17;;;;;;;15.93;7.85;;;;;;;12.42;87.74;102344.09;10567835;28;20024;-73
2022/11/13 09:20:17;;;;;;;13.10;8.48;;;;;;;12.73;83.65;102335.97;10562346;28;20078;-73
2022/11/13 09:25:18;;;;;;;12.50;7.13;;;;;;;12.87;83.77;102326.25;10547443;28;20039;-72
2022/11/13 09:30:18;;;;;;;10.73;9.13;;;;;;;13.23;84.12;102321.09;10545996;28;20483;-73
2022/11/13 09:35:32;;;;;;;8.75;7.82;;;;;;;13.30;79.69;102327.53;10545500;28;20032;-75
2022/11/13 09:40:49;;;;;;;10.52;9.13;;;;;;;13.48;81.70;102325.34;10546488;28;20375;-71
2022/11/13 09:45:50;;;;;;;15.02;8.70;;;;;;;13.86;78.66;102316.38;10559536;28;20032;-69
2022/11/13 09:50:51;;;;;;;9.73;7.82;;;;;;;14.03;80.15;102322.50;10560370;28;20046;-69
2022/11/13 09:55:56;;;;;;;7.30;6.38;;;;;;;14.19;80.88;102317.72;10546635;28;20040;-69
2022/11/13 10:00:57;;;;;;;12.13;8.07;;;;;;;14.55;84.51;102303.38;10560588;28;20032;-70
2022/11/13 10:06:15;;;;;;;8.35;7.45;;;;;;;14.94;80.79;102310.38;10527024;28;20115;-71
2022/11/13 10:11:34;;;;;;;11.27;8.88;;;;;;;14.89;72.89;102307.34;10560610;28;20116;-70
2022/11/13 10:16:59;;;;;;;10.85;8.38;;;;;;;15.00;75.56;102304.16;10544194;28;20376;-70
2022/11/13 10:22:32;;;;;;;14.00;8.82;;;;;;;15.31;79.03;102300.25;10534985;28;20120;-70
2022/11/13 10:27:32;;;;;;;12.27;7.70;;;;;;;15.33;73.70;102298.19;10490380;28;20048;-69
2022/11/13 10:32:33;;;;;;;9.00;8.10;;;;;;;15.22;71.86;102285.91;10543990;28;20537;-70
2022/11/13 10:37:55;;;;;;;9.70;8.77;;;;;;;15.21;72.89;102283.38;10542161;28;20384;-70
2022/11/13 10:43:06;;;;;;;8.50;6.93;;;;;;;15.56;72.42;102279.69;10543349;28;20027;-70
2022/11/13 10:48:20;;;;;;;9.27;7.90;;;;;;;15.84;73.02;102273.44;10541833;28;20035;-70
2022/11/13 10:53:21;;;;;;;8.23;7.53;;;;;;;15.74;70.81;102262.03;10542673;28;20409;-72
2022/11/13 10:58:21;;;;;;;12.10;7.65;;;;;;;15.65;69.73;102264.03;10543463;28;20032;-70
2022/11/13 11:03:23;;;;;;;8.13;7.32;;;;;;;15.73;70.32;102257.59;10542711;28;20126;-69
2022/11/13 11:08:29;;;;;;;8.48;7.47;;;;;;;15.86;70.76;102241.31;10557792;28;20032;-72
2022/11/13 11:13:30;;;;;;;8.05;7.25;;;;;;;15.68;69.51;102230.06;10543033;28;20035;-69
2022/11/13 11:18:40;;;;;;;9.05;7.13;;;;;;;15.59;68.21;102221.13;10541668;28;20379;-69
2022/11/13 11:23:42;;;;;;;7.47;6.30;;;;;;;15.69;73.95;102215.34;10557879;28;20039;-71
2022/11/13 11:28:48;;;;;;;7.03;6.43;;;;;;;15.78;68.54;102193.13;10562143;28;20412;-70
2022/11/13 11:34:16;;;;;;;17.95;7.20;;;;;;;15.68;70.64;102191.81;10558674;28;20044;-70
2022/11/13 11:39:30;;;;;;;8.07;7.15;;;;;;;15.53;71.31;102187.25;10541451;28;20043;-68
2022/11/13 11:44:47;;;;;;;10.40;7.32;;;;;;;15.96;75.33;102181.69;10542825;28;20031;-70
2022/11/13 11:49:47;;;;;;;10.10;5.97;;;;;;;15.92;67.59;102165.91;10542453;28;20028;-69
2022/11/13 11:54:54;;;;;;;9.15;6.78;;;;;;;15.72;69.53;102154.88;10539332;28;20040;-67
2022/11/13 12:00:04;;;;;;;9.25;8.07;;;;;;;15.85;68.48;102143.16;10522756;28;20051;-69
2022/11/13 12:05:21;;;;;;;8.15;7.32;;;;;;;16.06;72.54;102144.97;10555837;28;20028;-67
2022/11/13 12:10:32;;;;;;;13.90;7.22;;;;;;;16.44;72.90;102137.13;10522204;28;20467;-68
2022/11/13 12:15:49;;;;;;;7.57;6.88;;;;;;;16.07;68.65;102111.97;10539318;28;20027;-67
2022/11/13 12:21:00;;;;;;;8.05;7.25;;;;;;;15.77;68.43;102109.53;10556152;28;20313;-68
2022/11/13 12:26:09;;;;;;;9.23;7.25;;;;;;;15.98;69.03;102104.97;10480681;28;20066;-67
2022/11/13 12:31:29;;;;;;;13.15;8.15;;;;;;;15.88;71.45;102101.78;10555981;28;20082;-69
2022/11/13 12:36:30;;;;;;;13.65;7.57;;;;;;;15.87;72.56;102087.28;10555780;28;20169;-67
2022/11/13 12:41:42;;;;;;;10.88;6.95;;;;;;;15.82;69.99;102084.31;10521366;28;20204;-67
2022/11/13 12:46:43;;;;;;;8.77;7.82;;;;;;;15.23;70.08;102085.66;10539024;28;20467;-66
2022/11/13 12:51:52;;;;;;;11.18;8.98;;;;;;;14.93;72.13;102074.06;10538204;28;20180;-67
2022/11/13 12:57:12;;;;;;;10.45;8.32;;;;;;;14.98;71.80;102068.88;10539724;28;20543;-68
2022/11/13 13:02:12;;;;;;;9.05;7.60;;;;;;;14.71;73.48;102069.69;10552903;28;20043;-68
2022/11/13 13:07:22;;;;;;;10.35;8.05;;;;;;;14.47;76.08;102074.50;10539080;28;20039;-68
2022/11/13 13:12:43;;;;;;;10.20;7.63;;;;;;;14.49;76.21;102057.97;10538418;28;20020;-68
2022/11/13 13:17:44;;;;;;;8.05;7.32;;;;;;;14.06;76.71;102058.75;10539549;28;20371;-67
2022/11/13 13:22:56;;;;;;;10.68;8.20;;;;;;;13.80;78.17;102051.13;10538877;28;20039;-66
2022/11/13 13:28:00;;;;;;;8.02;7.07;;;;;;;13.74;79.45;102041.00;10560099;28;20047;-66
2022/11/13 13:33:21;;;;;;;9.10;8.07;;;;;;;13.71;80.59;102039.50;10544404;28;20073;-65
2022/11/13 13:38:44;;;;;;;8.85;6.75;;;;;;;13.81;80.60;102036.47;10546954;28;20035;-68
2022/11/13 13:43:56;;;;;;;10.50;8.18;;;;;;;13.64;80.46;102035.84;10537657;28;20063;-68
2022/11/13 13:49:02;;;;;;;9.18;7.90;;;;;;;13.55;80.55;102034.25;10545778;28;20045;-68
2022/11/13 13:54:05;;;;;;;12.32;9.73;;;;;;;13.49;80.02;102029.56;10562413;28;20459;-69
2022/11/13 13:59:14;;;;;;;13.23;8.95;;;;;;;13.52;82.06;102028.34;10545376;28;20032;-67
2022/11/13 14:04:19;;;;;;;12.57;7.45;;;;;;;13.62;83.80;102032.47;10560454;28;20404;-69
2022/11/13 14:09:22;;;;;;;11.45;8.23;;;;;;;13.59;83.36;102026.56;10560246;28;20032;-67
2022/11/13 14:14:22;;;;;;;10.68;9.27;;;;;;;13.54;84.11;102021.69;10545965;28;20074;-67
2022/11/13 14:19:23;;;;;;;9.90;8.98;;;;;;;13.50;85.13;102012.22;10544554;28;20455;-68
2022/11/13 14:24:39;;;;;;;13.00;9.30;;;;;;;13.68;86.82;102020.81;10544121;28;20031;-68
2022/11/13 14:29:50;;;;;;;10.45;8.60;;;;;;;13.55;88.21;102017.94;10559356;28;20438;-65
2022/11/13 14:34:52;;;;;;;22.75;9.50;;;;;;;13.32;88.61;102017.22;10543341;28;20040;-67
2022/11/13 14:39:53;;;;;;;8.90;7.75;;;;;;;13.19;88.70;102012.41;10541280;28;20048;-67
2022/11/13 14:44:53;;;;;;;12.63;7.53;;;;;;;13.07;89.44;102013.91;10558665;28;20031;-67
2022/11/13 14:49:53;;;;;;;12.07;8.27;;;;;;;12.97;88.44;102008.72;10542030;28;20036;-67
2022/11/13 14:55:04;;;;;;;10.05;8.98;;;;;;;12.90;86.97;102003.19;10541482;28;20035;-66
2022/11/13 15:00:14;;;;;;;12.38;8.30;;;;;;;12.89;86.88;101993.34;10558877;28;20185;-66
2022/11/13 15:05:15;;;;;;;15.07;8.55;;;;;;;12.73;85.93;101988.94;10558614;28;20468;-68
2022/11/13 15:10:17;;;;;;;8.60;7.82;;;;;;;12.70;86.21;101989.31;10540188;28;20031;-68
2022/11/13 15:15:24;;;;;;;13.60;8.82;;;;;;;12.74;86.95;101984.34;10540337;28;20039;-67
2022/11/13 15:20:25;;;;;;;12.40;9.05;;;;;;;12.63;86.86;101974.75;10542117;28;20028;-68
2022/11/13 15:25:26;;;;;;;11.00;9.70;;;;;;;12.46;86.92;101959.63;10540521;28;20195;-68
2022/11/13 15:30:26;;;;;;;12.20;8.88;;;;;;;12.34;87.39;101954.63;10543067;28;20253;-66
2022/11/13 15:35:27;;;;;;;9.50;8.25;;;;;;;12.20;87.74;101963.59;10539919;28;20471;-67
2022/11/13 15:40:27;;;;;;;13.77;8.52;;;;;;;11.99;88.12;101964.25;10540418;28;20042;-66
2022/11/13 15:45:27;;;;;;;9.45;8.55;;;;;;;11.86;89.38;101959.41;10490875;28;20409;-65
2022/11/13 15:50:28;;;;;;;12.27;10.20;;;;;;;11.72;90.28;101954.75;10540794;28;20040;-66
2022/11/13 15:55:29;;;;;;;10.48;9.23;;;;;;;11.57;90.63;101951.94;10540296;28;20503;-66
2022/11/13 16:00:31;;;;;;;10.10;9.10;;;;;;;11.49;91.33;101951.16;10522621;28;20368;-66
2022/11/13 16:05:31;;;;;;;14.68;8.48;;;;;;;11.41;92.30;101952.03;10540183;28;20067;-66
2022/11/13 16:10:32;;;;;;;8.98;8.07;;;;;;;11.43;91.89;101947.28;10556885;28;20059;-66
2022/11/13 16:15:32;;;;;;;13.45;9.45;;;;;;;11.29;90.54;101948.88;10523260;28;20398;-66
2022/11/13 16:20:33;;;;;;;10.23;8.52;;;;;;;11.04;91.40;101942.72;10540218;28;20032;-66
2022/11/13 16:25:33;;;;;;;13.98;11.15;;;;;;;10.92;91.92;101933.28;10540880;28;20036;-66
2022/11/13 16:30:34;;;;;;;16.75;10.52;;;;;;;10.71;93.04;101936.53;10539266;28;20048;-66
2022/11/13 16:35:34;;;;;;;10.98;9.45;;;;;;;10.66;92.93;101928.09;10539179;28;20040;-66
2022/11/13 16:40:35;;;;;;;10.38;9.30;;;;;;;10.53;92.57;101927.75;10539771;28;20059;-66
2022/11/13 16:45:38;;;;;;;13.13;9.60;;;;;;;10.40;93.91;101929.16;10537403;28;20047;-67
2022/11/13 16:50:39;;;;;;;13.68;10.18;;;;;;;10.34;93.96;101916.31;10539221;28;20039;-67
2022/11/13 16:55:39;;;;;;;11.80;10.05;;;;;;;10.22;93.96;101904.09;10521953;28;20353;-66
2022/11/13 17:00:39;;;;;;;18.83;9.98;;;;;;;10.13;95.03;101907.81;10541140;28;20372;-67
2022/11/13 17:05:40;;;;;;;13.70;10.38;;;;;;;10.09;96.78;101895.66;10545882;28;20040;-66
2022/11/13 17:10:40;;;;;;;22.33;10.68;;;;;;;10.18;98.08;101891.94;10546861;28;20474;-66
2022/11/13 17:15:41;;;;;;;13.55;10.38;;;;;;;10.16;99.84;101894.78;10545860;28;20029;-66
2022/11/13 17:20:41;;;;;;;13.38;12.10;;;;;;;10.14;98.52;101883.28;10528283;28;20066;-66
2022/11/13 17:25:42;;;;;;;15.25;13.13;;;;;;;10.07;97.67;101882.28;10545827;28;20106;-67
2022/11/13 17:30:42;;;;;;;16.15;11.98;;;;;;;9.94;96.76;101880.09;10562671;28;20048;-66
2022/11/13 17:35:45;;;;;;;15.73;12.10;;;;;;;9.75;96.37;101869.59;10545157;28;20028;-66
2022/11/13 17:40:45;;;;;;;21.10;12.85;;;;;;;9.53;97.05;101871.94;10546278;28;20042;-66
2022/11/13 17:45:49;;;;;;;15.57;10.15;;;;;;;9.57;98.97;101871.59;10545443;28;20333;-65
2022/11/13 17:50:57;;;;;;;14.23;12.50;;;;;;;9.60;97.69;101865.88;10545237;28;20119;-67
2022/11/13 17:56:01;;;;;;;13.18;11.88;;;;;;;9.36;96.28;101870.22;10545016;28;20483;-66
2022/11/13 18:01:11;;;;;;;21.38;13.70;;;;;;;8.98;96.59;101871.63;10543851;28;20067;-66
2022/11/13 18:06:13;;;;;;;23.83;14.27;;;;;;;8.80;97.28;101874.44;10560874;28;20051;-66
2022/11/13 18:11:18;;;;;;;14.13;11.77;;;;;;;8.59;97.57;101880.25;10543281;28;20036;-66
2022/11/13 18:16:23;;;;;;;20.98;13.20;;;;;;;8.49;97.82;101874.97;10526180;28;20441;-66
2022/11/13 18:21:25;;;;;;;20.52;14.20;;;;;;;8.40;98.10;101870.53;10544021;28;20050;-66
2022/11/13 18:26:26;;;;;;;19.75;14.73;;;;;;;8.33;97.26;101864.88;10544349;28;20404;-66
2022/11/13 18:31:26;;;;;;;20.77;15.63;;;;;;;8.24;97.35;101865.00;10544999;28;20052;-67
2022/11/13 18:36:27;;;;;;;16.85;14.27;;;;;;;8.10;97.34;101861.00;10543643;28;20036;-66
2022/11/13 18:41:28;;;;;;;17.00;12.38;;;;;;;7.98;97.69;101863.13;10559118;28;20044;-66
2022/11/13 18:46:29;;;;;;;24.60;14.73;;;;;;;7.91;98.12;101862.03;10542463;28;20457;-66
2022/11/13 18:51:34;;;;;;;21.50;14.45;;;;;;;7.92;97.81;101861.88;10542114;28;20032;-67
2022/11/13 18:56:35;;;;;;;23.17;15.25;;;;;;;7.78;97.76;101843.56;10542737;28;20063;-67
2022/11/13 19:01:37;;;;;;;16.42;13.80;;;;;;;7.68;97.49;101843.66;10541395;28;20079;-67
2022/11/13 19:06:37;;;;;;;23.13;14.52;;;;;;;7.53;98.10;101834.44;10542526;28;20028;-66
2022/11/13 19:11:38;;;;;;;14.68;13.10;;;;;;;7.44;98.12;101832.66;10542267;28;20391;-67
2022/11/13 19:16:38;;;;;;;21.95;13.95;;;;;;;7.35;98.60;101826.34;10557184;28;20114;-67
2022/11/13 19:21:39;;;;;;;20.17;13.15;;;;;;;7.35;99.30;101836.28;10541825;28;20038;-68
2022/11/13 19:26:40;;;;;;;18.58;13.35;;;;;;;7.45;99.28;101834.34;10540963;28;20093;-66
2022/11/13 19:31:41;;;;;;;15.38;12.07;;;;;;;7.60;100.00;101838.19;10557341;28;20087;-66
2022/11/13 19:36:43;;;;;;;14.75;12.27;;;;;;;7.76;100.00;101825.88;10541112;28;20055;-66
2022/11/13 19:41:44;;;;;;;23.75;14.07;;;;;;;7.88;100.00;101819.19;10541077;28;20482;-66
2022/11/13 19:46:44;;;;;;;24.17;13.55;;;;;;;7.85;99.60;101812.28;10540904;28;20043;-68
2022/11/13 19:51:45;;;;;;;20.05;12.85;;;;;;;7.72;98.87;101803.72;10539198;28;20066;-66
2022/11/13 19:56:45;;;;;;;17.13;13.50;;;;;;;7.50;98.95;101802.41;10540051;28;20084;-66
2022/11/13 20:01:46;;;;;;;17.70;14.50;;;;;;;7.46;100.00;101804.53;10538728;28;20039;-67
2022/11/13 20:06:46;;;;;;;17.70;13.55;;;;;;;7.52;100.00;101796.84;10556152;28;20043;-66
2022/11/13 20:11:46;;;;;;;17.55;13.70;;;;;;;7.54;100.00;101801.09;10540414;28;20449;-67
2022/11/13 20:16:47;;;;;;;17.27;13.07;;;;;;;7.55;100.00;101791.97;10540193;28;20035;-65
2022/11/13 20:21:47;;;;;;;26.40;14.65;;;;;;;7.64;100.00;101785.66;10556678;28;20036;-67
2022/11/13 20:26:48;;;;;;;16.77;12.65;;;;;;;7.69;100.00;101779.81;10521216;28;20388;-66
2022/11/13 20:31:50;;;;;;;20.15;14.07;;;;;;;7.66;100.00;101767.50;10540473;28;20076;-67
2022/11/13 20:36:51;;;;;;;18.17;13.05;;;;;;;7.60;100.00;101769.97;10528406;28;20039;-66
2022/11/13 20:41:51;;;;;;;14.43;12.88;;;;;;;7.61;100.00;101760.88;10547547;28;20031;-66
2022/11/13 20:46:52;;;;;;;25.70;14.93;;;;;;;7.59;100.00;101750.22;10548358;28;20050;-66
2022/11/13 20:51:52;;;;;;;24.20;15.57;;;;;;;7.65;100.00;101741.50;10548528;28;20043;-67
2022/11/13 20:56:52;;;;;;;17.60;13.93;;;;;;;7.72;100.00;101736.34;10532108;28;20076;-66
2022/11/13 21:01:53;;;;;;;20.90;14.00;;;;;;;7.81;100.00;101735.38;10567055;28;20036;-66
2022/11/13 21:06:53;;;;;;;19.95;13.95;;;;;;;7.80;100.00;101732.88;10548826;28;20040;-66
2022/11/13 21:11:54;;;;;;;15.48;12.13;;;;;;;7.71;100.00;101723.88;10548718;28;20126;-66
2022/11/13 21:16:54;;;;;;;15.57;13.60;;;;;;;7.63;100.00;101713.06;10546753;28;20043;-68
2022/11/13 21:21:54;;;;;;;16.13;14.52;;;;;;;7.69;100.00;101707.03;10547872;28;20036;-66
2022/11/13 21:26:55;;;;;;;17.77;13.13;;;;;;;7.68;100.00;101699.94;10547246;28;20452;-66
2022/11/13 21:31:55;;;;;;;17.02;12.45;;;;;;;7.55;100.00;101688.72;10546947;28;20052;-66
2022/11/13 21:36:56;;;;;;;26.27;15.80;;;;;;;7.38;100.00;101699.38;10547219;28;20025;-68
2022/11/13 21:41:56;;;;;;;13.82;12.57;;;;;;;7.21;100.00;101678.69;10546051;28;20073;-66
2022/11/13 21:46:57;;;;;;;17.17;13.27;;;;;;;7.11;100.00;101680.63;10527375;28;20345;-66
2022/11/13 21:51:57;;;;;;;22.50;14.45;;;;;;;6.94;100.00;101677.81;10545736;28;20119;-66
2022/11/13 21:56:57;;;;;;;45.33;26.77;;;;;;;6.69;100.00;101674.03;10561603;28;20031;-66
2022/11/13 22:01:58;;;;;;;17.17;14.00;;;;;;;6.52;100.00;101680.25;10545693;28;20523;-65
2022/11/13 22:06:58;;;;;;;19.10;14.07;;;;;;;6.50;100.00;101658.88;10560198;28;20036;-66
2022/11/13 22:11:59;;;;;;;17.67;15.43;;;;;;;6.44;100.00;101658.63;10545202;28;20036;-66
2022/11/13 22:16:59;;;;;;;17.67;15.82;;;;;;;6.33;100.00;101653.50;10561570;28;20532;-67
2022/11/13 22:22:00;;;;;;;26.58;17.10;;;;;;;6.11;100.00;101652.91;10544531;28;20032;-66
2022/11/13 22:27:00;;;;;;;26.23;15.00;;;;;;;5.91;100.00;101654.81;10543015;28;20040;-67
2022/11/13 22:32:00;;;;;;;19.60;14.93;;;;;;;5.88;100.00;101648.91;10543102;28;20116;-66
2022/11/13 22:37:01;;;;;;;24.17;18.15;;;;;;;5.86;100.00;101643.66;10544217;28;20119;-65
2022/11/13 22:42:01;;;;;;;18.90;15.57;;;;;;;5.89;100.00;101659.47;10543062;28;20143;-68
2022/11/13 22:47:01;;;;;;;21.27;16.92;;;;;;;6.04;100.00;101649.97;10542838;28;20093;-66
2022/11/13 22:52:02;;;;;;;23.00;16.23;;;;;;;6.00;100.00;101640.50;10541676;28;20040;-67